Time;durP1;ratioP1;P1;durP2;ratioP2;P2;SDS_P1;SDS_P2;PMS_P1;PMS_P2;Temp;Humidity;BMP_temperature;BMP_pressure;BME280_temperature;BME280_humidity;BME280_pressure;Samples;Min_cycle;Max_cycle;Signal;HPM_P1;HPM_P2
2023/07/21 00:00:23;;;;;;;2.53;1.00;;;19.00;91.50;;;;;;6211913;23;20084;-83
2023/07/21 00:02:51;;;;;;;1.23;1.05;;;19.00;91.50;;;;;;6211939;23;19997;-83
2023/07/21 00:05:17;;;;;;;1.75;0.85;;;18.90;91.40;;;;;;6211831;23;20005;-83
2023/07/21 00:07:44;;;;;;;1.55;0.75;;;18.90;91.40;;;;;;6212124;23;20327;-82
2023/07/21 00:10:10;;;;;;;1.63;0.82;;;18.90;91.40;;;;;;6211179;23;20457;-83
2023/07/21 00:12:37;;;;;;;1.42;1.02;;;18.80;91.40;;;;;;6211674;23;20076;-83
2023/07/21 00:15:05;;;;;;;2.72;1.10;;;18.80;91.40;;;;;;6211907;23;20008;-83
2023/07/21 00:17:32;;;;;;;1.85;0.77;;;18.80;91.40;;;;;;6211845;23;20387;-83
2023/07/21 00:20:03;;;;;;;2.53;1.40;;;18.80;91.50;;;;;;6211790;23;20015;-83
2023/07/21 00:22:31;;;;;;;1.27;0.82;;;18.80;91.60;;;;;;6212044;23;20012;-83
2023/07/21 00:24:57;;;;;;;3.28;0.77;;;18.80;91.50;;;;;;6184571;23;20103;-83
2023/07/21 00:27:23;;;;;;;0.60;0.55;;;18.80;91.60;;;;;;6211685;23;20039;-83
2023/07/21 00:29:49;;;;;;;1.40;0.77;;;18.80;91.50;;;;;;6185225;23;20451;-83
2023/07/21 00:32:18;;;;;;;1.92;0.90;;;18.80;91.50;;;;;;6211790;23;20000;-83
2023/07/21 00:34:44;;;;;;;1.23;0.90;;;18.70;91.70;;;;;;6211936;23;20122;-83
2023/07/21 00:37:10;;;;;;;1.52;1.30;;;18.70;91.80;;;;;;6211730;23;20000;-83
2023/07/21 00:39:37;;;;;;;1.30;0.80;;;18.60;91.80;;;;;;6211526;23;20050;-83
2023/07/21 00:42:04;;;;;;;1.92;0.95;;;18.60;91.80;;;;;;6211615;23;20016;-82
2023/07/21 00:44:30;;;;;;;1.30;1.00;;;18.50;91.80;;;;;;6211288;23;20036;-83
2023/07/21 00:46:56;;;;;;;2.28;1.00;;;18.50;91.80;;;;;;6211741;23;20007;-83
2023/07/21 00:49:22;;;;;;;4.45;1.23;;;18.50;91.80;;;;;;6211549;23;20001;-83
2023/07/21 00:51:47;;;;;;;1.45;1.00;;;18.40;91.80;;;;;;6211143;23;20430;-83
2023/07/21 00:54:13;;;;;;;1.30;1.20;;;18.40;91.80;;;;;;6211063;23;20040;-82
2023/07/21 00:56:39;;;;;;;3.38;1.25;;;18.40;91.90;;;;;;6211473;23;20028;-83
2023/07/21 00:59:04;;;;;;;2.42;1.33;;;18.40;92.00;;;;;;6211454;23;20450;-83
2023/07/21 01:01:30;;;;;;;2.22;1.27;;;18.40;92.00;;;;;;6211596;23;20080;-83
2023/07/21 01:03:56;;;;;;;1.90;1.08;;;18.30;91.90;;;;;;6211220;23;20296;-83
2023/07/21 01:06:27;;;;;;;6.35;1.27;;;18.30;91.90;;;;;;6211081;23;20000;-83
2023/07/21 01:09:02;;;;;;;2.20;1.10;;;18.30;91.90;;;;;;6211147;23;20024;-83
2023/07/21 01:11:29;;;;;;;1.35;1.13;;;18.20;91.90;;;;;;6184807;23;20005;-83
2023/07/21 01:13:59;;;;;;;3.55;1.20;;;18.20;91.90;;;;;;6211266;23;20014;-83
2023/07/21 01:16:26;;;;;;;1.02;0.93;;;18.20;91.90;;;;;;6210562;23;20005;-84
2023/07/21 01:18:53;;;;;;;1.90;1.10;;;18.20;92.00;;;;;;6211213;23;20005;-83
2023/07/21 01:21:54;;;;;;;1.73;1.30;;;18.20;92.10;;;;;;6211112;23;20004;-83
2023/07/21 01:24:37;;;;;;;1.67;1.27;;;18.20;92.10;;;;;;6184366;23;20403;-83
2023/07/21 01:27:05;;;;;;;2.13;1.00;;;18.10;92.20;;;;;;6211334;23;20076;-83
2023/07/21 01:29:34;;;;;;;1.85;1.38;;;18.10;92.30;;;;;;6211351;23;20091;-83
2023/07/21 01:32:02;;;;;;;1.50;1.30;;;18.10;92.30;;;;;;6211355;23;20358;-83
2023/07/21 01:34:30;;;;;;;1.80;1.00;;;18.10;92.40;;;;;;6211180;23;20083;-83
2023/07/21 01:36:56;;;;;;;2.53;1.35;;;18.10;92.60;;;;;;6210755;23;20008;-83
2023/07/21 01:39:22;;;;;;;2.38;1.30;;;18.10;92.70;;;;;;6211303;23;20331;-83
2023/07/21 01:41:48;;;;;;;2.22;1.00;;;18.10;92.80;;;;;;6211108;23;20005;-83
2023/07/21 01:44:13;;;;;;;1.88;1.40;;;18.00;92.90;;;;;;6209885;23;20004;-83
2023/07/21 01:46:39;;;;;;;1.58;1.20;;;18.00;93.00;;;;;;6211039;23;20004;-84
2023/07/21 01:49:04;;;;;;;1.90;1.42;;;18.00;92.90;;;;;;6210851;23;20007;-83
2023/07/21 01:51:31;;;;;;;2.17;1.30;;;17.90;92.80;;;;;;6183530;23;19996;-84
2023/07/21 01:54:04;;;;;;;2.70;1.10;;;17.90;92.80;;;;;;6210876;23;20019;-83
2023/07/21 01:56:32;;;;;;;1.20;1.10;;;17.90;92.80;;;;;;6212708;23;20029;-83
2023/07/21 01:59:04;;;;;;;1.63;1.33;;;17.80;92.80;;;;;;6212976;23;20028;-83
2023/07/21 02:01:30;;;;;;;1.48;1.25;;;17.80;93.00;;;;;;6213235;23;19997;-84
2023/07/21 02:03:56;;;;;;;2.00;1.45;;;17.80;93.10;;;;;;6212863;23;20063;-83
2023/07/21 02:06:21;;;;;;;4.90;1.58;;;17.70;93.10;;;;;;6212361;23;20008;-84
2023/07/21 02:08:47;;;;;;;4.35;1.85;;;17.70;93.20;;;;;;6212859;23;20016;-83
2023/07/21 02:11:13;;;;;;;2.75;1.52;;;17.60;93.20;;;;;;6212802;23;20011;-83
2023/07/21 02:13:39;;;;;;;3.78;1.90;;;17.60;93.30;;;;;;6213225;23;20311;-83
2023/07/21 02:16:05;;;;;;;2.65;1.60;;;17.60;93.50;;;;;;6212984;23;20001;-83
2023/07/21 02:18:33;;;;;;;1.20;1.08;;;17.50;93.60;;;;;;6213230;23;20004;-83
2023/07/21 02:21:02;;;;;;;3.25;1.30;;;17.50;93.70;;;;;;6212401;23;20000;-83
2023/07/21 02:23:28;;;;;;;1.85;1.70;;;17.40;93.70;;;;;;6213117;23;20001;-85
2023/07/21 02:25:54;;;;;;;3.47;1.52;;;17.40;93.80;;;;;;6212979;23;20299;-83
2023/07/21 02:28:20;;;;;;;1.40;1.25;;;17.30;93.90;;;;;;6212895;23;20083;-83
2023/07/21 02:30:46;;;;;;;2.03;1.67;;;17.30;94.00;;;;;;6212673;23;20004;-84
2023/07/21 02:33:11;;;;;;;4.85;1.50;;;17.30;94.10;;;;;;6212447;23;20384;-83
2023/07/21 02:35:37;;;;;;;2.15;1.40;;;17.20;94.20;;;;;;6212347;23;20007;-83
2023/07/21 02:38:05;;;;;;;3.08;1.45;;;17.20;94.30;;;;;;6212785;23;20012;-83
2023/07/21 02:40:31;;;;;;;1.67;1.40;;;17.20;94.40;;;;;;6213218;23;20394;-83
2023/07/21 02:42:58;;;;;;;1.80;1.58;;;17.20;94.60;;;;;;6212866;23;20050;-84
2023/07/21 02:45:23;;;;;;;2.70;1.63;;;17.10;94.70;;;;;;6212623;23;20348;-83
2023/07/21 02:47:49;;;;;;;2.20;1.67;;;17.10;94.80;;;;;;6212771;23;19997;-83
2023/07/21 02:50:15;;;;;;;4.55;1.60;;;17.10;94.90;;;;;;6212004;23;20076;-83
2023/07/21 02:52:42;;;;;;;2.22;1.40;;;17.10;95.10;;;;;;6212462;23;20023;-83
2023/07/21 02:55:08;;;;;;;2.13;1.30;;;17.00;95.10;;;;;;6185666;23;20008;-84
2023/07/21 02:57:34;;;;;;;2.00;1.10;;;17.00;95.10;;;;;;6212930;23;20062;-83
2023/07/21 03:00:03;;;;;;;2.78;1.50;;;17.00;95.10;;;;;;6212439;23;20004;-83
2023/07/21 03:02:29;;;;;;;1.92;1.60;;;16.90;95.10;;;;;;6212784;23;20008;-84
2023/07/21 03:04:54;;;;;;;2.90;1.63;;;16.90;95.10;;;;;;6211933;23;20008;-83
2023/07/21 03:07:20;;;;;;;1.75;1.65;;;16.90;95.20;;;;;;6212075;23;20447;-83
2023/07/21 03:09:46;;;;;;;1.75;1.60;;;16.90;95.10;;;;;;6212501;23;20044;-84
2023/07/21 03:12:12;;;;;;;2.67;2.05;;;16.90;95.10;;;;;;6212599;23;20070;-83
2023/07/21 03:14:37;;;;;;;2.50;2.30;;;16.90;95.20;;;;;;6212124;23;20063;-84
2023/07/21 03:17:03;;;;;;;2.05;1.95;;;16.80;95.30;;;;;;6212261;23;20378;-83
2023/07/21 03:19:30;;;;;;;3.83;1.75;;;16.80;95.40;;;;;;6211366;23;20011;-83
2023/07/21 03:21:57;;;;;;;2.83;2.03;;;16.70;95.50;;;;;;6211552;23;20118;-83
2023/07/21 03:24:23;;;;;;;2.10;1.90;;;16.70;95.60;;;;;;6209902;23;20005;-83
2023/07/21 03:26:50;;;;;;;1.85;1.60;;;16.70;95.70;;;;;;6209082;23;20011;-83
2023/07/21 03:29:16;;;;;;;1.88;1.73;;;16.60;95.80;;;;;;6209525;23;19997;-83
2023/07/21 03:31:42;;;;;;;1.60;1.48;;;16.60;95.90;;;;;;6209894;23;20084;-83
2023/07/21 03:34:07;;;;;;;2.67;1.90;;;16.50;96.00;;;;;;6209124;23;20080;-82
2023/07/21 03:36:33;;;;;;;2.20;2.00;;;16.50;96.10;;;;;;6210240;23;20091;-83
2023/07/21 03:38:58;;;;;;;2.53;2.00;;;16.50;96.20;;;;;;6210745;23;20001;-83
2023/07/21 03:41:24;;;;;;;2.40;2.13;;;16.40;96.20;;;;;;6212249;23;20015;-83
2023/07/21 03:43:50;;;;;;;2.72;2.08;;;16.40;96.30;;;;;;6212073;23;20054;-83
2023/07/21 03:46:16;;;;;;;3.22;2.53;;;16.30;96.70;;;;;;6211901;23;20028;-83
2023/07/21 03:48:43;;;;;;;4.32;2.50;;;16.30;96.50;;;;;;6209055;23;20020;-83
2023/07/21 03:51:08;;;;;;;2.50;2.10;;;16.30;96.60;;;;;;6210392;23;20047;-83
2023/07/21 03:53:34;;;;;;;2.25;1.77;;;16.30;96.70;;;;;;6211849;23;20016;-82
2023/07/21 03:55:59;;;;;;;5.20;2.00;;;16.20;96.70;;;;;;6212194;23;20005;-83
2023/07/21 03:58:25;;;;;;;3.92;2.13;;;16.20;96.90;;;;;;6211730;23;20000;-83
2023/07/21 04:00:50;;;;;;;3.50;2.22;;;16.20;97.00;;;;;;6211982;23;20425;-83
2023/07/21 04:03:19;;;;;;;2.55;2.35;;;16.20;97.10;;;;;;6211098;23;20001;-83
2023/07/21 04:05:45;;;;;;;2.38;2.17;;;16.20;97.20;;;;;;6211957;23;20000;-83
2023/07/21 04:08:11;;;;;;;2.15;1.95;;;16.20;97.30;;;;;;6211952;23;20001;-83
2023/07/21 04:10:41;;;;;;;3.50;2.25;;;16.20;97.40;;;;;;6211950;23;20050;-83
2023/07/21 04:13:07;;;;;;;2.85;2.10;;;16.20;97.50;;;;;;6211567;23;20007;-84
2023/07/21 04:15:33;;;;;;;3.85;2.78;;;16.20;97.60;;;;;;6212181;23;20013;-82
2023/07/21 04:17:58;;;;;;;2.97;2.13;;;16.20;97.70;;;;;;6210786;23;20023;-83
2023/07/21 04:20:24;;;;;;;4.45;3.38;;;16.20;97.80;;;;;;6211834;23;19997;-83
2023/07/21 04:22:51;;;;;;;3.80;2.80;;;16.20;97.90;;;;;;6211749;23;20080;-83
2023/07/21 04:25:18;;;;;;;3.22;2.97;;;16.20;98.00;;;;;;6185426;23;20019;-83
2023/07/21 04:27:50;;;;;;;4.45;2.50;;;16.20;98.00;;;;;;6211856;23;20028;-82
2023/07/21 04:30:16;;;;;;;2.58;2.25;;;16.30;98.00;;;;;;6185086;23;20395;-82
2023/07/21 04:32:42;;;;;;;3.35;2.38;;;16.40;97.90;;;;;;6211768;23;20271;-83
2023/07/21 04:35:11;;;;;;;3.83;2.17;;;16.40;97.90;;;;;;6211882;23;20001;-83
2023/07/21 04:37:38;;;;;;;3.08;2.65;;;16.50;97.90;;;;;;6211792;23;20027;-83
2023/07/21 04:40:06;;;;;;;2.92;2.17;;;16.60;97.90;;;;;;6211934;23;20032;-83
2023/07/21 04:42:32;;;;;;;2.78;2.05;;;16.70;97.80;;;;;;6211836;23;20005;-84
2023/07/21 04:44:58;;;;;;;2.75;2.40;;;16.70;97.70;;;;;;6210661;23;20016;-83
2023/07/21 04:47:24;;;;;;;2.53;2.33;;;16.80;97.70;;;;;;6211145;23;20004;-83
2023/07/21 04:49:50;;;;;;;2.80;2.58;;;16.80;97.60;;;;;;6210905;23;20012;-83
2023/07/21 04:52:16;;;;;;;4.78;2.40;;;16.70;97.50;;;;;;6211345;23;20009;-83
2023/07/21 04:54:42;;;;;;;2.25;1.92;;;16.70;97.60;;;;;;6211692;23;20001;-83
2023/07/21 04:57:07;;;;;;;2.25;2.00;;;16.70;97.60;;;;;;6211511;23;20011;-83
2023/07/21 04:59:33;;;;;;;3.05;2.15;;;16.80;97.60;;;;;;6184553;23;20013;-83
2023/07/21 05:01:58;;;;;;;2.28;2.08;;;16.80;97.50;;;;;;6211368;23;20009;-84
2023/07/21 05:04:24;;;;;;;3.03;2.00;;;16.80;97.30;;;;;;6211323;23;20054;-83
2023/07/21 05:06:50;;;;;;;2.00;1.80;;;16.80;97.20;;;;;;6184678;23;20004;-83
2023/07/21 05:09:15;;;;;;;3.67;1.77;;;16.70;97.10;;;;;;6211359;23;20001;-83
2023/07/21 05:11:42;;;;;;;3.05;1.98;;;16.80;97.10;;;;;;6211518;23;20001;-83
2023/07/21 05:14:07;;;;;;;2.97;2.55;;;16.70;97.00;;;;;;6211026;23;20012;-84
2023/07/21 05:16:36;;;;;;;2.67;2.47;;;16.70;96.90;;;;;;6211440;23;20013;-82
2023/07/21 05:19:02;;;;;;;3.22;2.15;;;16.70;96.90;;;;;;6211490;23;20011;-84
2023/07/21 05:21:28;;;;;;;2.95;2.08;;;16.70;97.10;;;;;;6211339;23;20004;-84
2023/07/21 05:23:54;;;;;;;2.80;2.60;;;16.60;96.80;;;;;;6211276;23;20091;-84
2023/07/21 05:26:21;;;;;;;2.70;2.47;;;16.60;96.90;;;;;;6211414;23;20001;-83
2023/07/21 05:28:48;;;;;;;3.15;2.95;;;16.60;96.90;;;;;;6210500;23;20058;-83
2023/07/21 05:31:14;;;;;;;2.80;2.60;;;16.60;97.00;;;;;;6211233;23;20080;-82
2023/07/21 05:33:39;;;;;;;3.65;2.63;;;16.70;96.90;;;;;;6184812;23;20043;-82
2023/07/21 05:36:09;;;;;;;3.70;2.83;;;16.70;96.90;;;;;;6210899;23;20032;-83
2023/07/21 05:38:35;;;;;;;4.20;2.38;;;16.70;97.00;;;;;;6211487;23;20055;-83
2023/07/21 05:41:01;;;;;;;2.25;2.05;;;16.80;97.00;;;;;;6211386;23;20001;-83
2023/07/21 05:43:27;;;;;;;4.07;2.28;;;16.90;96.90;;;;;;6184179;23;20054;-83
2023/07/21 05:45:52;;;;;;;2.60;2.40;;;16.90;96.80;;;;;;6211314;23;20239;-83
2023/07/21 05:48:18;;;;;;;3.13;2.30;;;17.10;96.80;;;;;;6211215;23;20001;-83
2023/07/21 05:50:44;;;;;;;2.50;2.30;;;17.10;96.70;;;;;;6211252;23;20067;-83
2023/07/21 05:53:09;;;;;;;3.00;2.05;;;17.30;96.60;;;;;;6211059;23;20091;-83
2023/07/21 05:55:35;;;;;;;3.08;2.78;;;17.30;96.40;;;;;;6211470;23;20004;-83
2023/07/21 05:58:00;;;;;;;2.72;2.53;;;17.40;96.40;;;;;;6210646;23;20088;-83
2023/07/21 06:00:26;;;;;;;2.88;2.10;;;17.50;96.20;;;;;;6210831;23;20068;-84
2023/07/21 06:02:52;;;;;;;2.58;2.25;;;17.60;96.20;;;;;;6211150;23;20127;-83
2023/07/21 06:05:18;;;;;;;4.15;2.67;;;17.70;96.00;;;;;;6211096;23;20769;-84
2023/07/21 06:07:45;;;;;;;2.97;2.13;;;17.70;95.90;;;;;;6210921;23;20004;-83
2023/07/21 06:10:11;;;;;;;2.60;2.22;;;17.80;95.70;;;;;;6211317;23;20024;-84
2023/07/21 06:12:37;;;;;;;2.65;2.30;;;17.80;95.60;;;;;;6210615;23;20342;-84
2023/07/21 06:15:04;;;;;;;3.35;2.15;;;18.00;95.60;;;;;;6211126;23;20012;-84
2023/07/21 06:17:30;;;;;;;3.85;2.60;;;18.00;95.50;;;;;;6211442;23;20323;-84
2023/07/21 06:19:56;;;;;;;3.05;2.72;;;18.00;95.40;;;;;;6210957;23;20000;-84
2023/07/21 06:22:22;;;;;;;2.28;2.08;;;18.10;95.50;;;;;;6211170;23;20000;-84
2023/07/21 06:24:47;;;;;;;2.75;2.55;;;18.10;95.50;;;;;;6210988;23;20009;-84
2023/07/21 06:27:13;;;;;;;4.30;3.05;;;18.20;95.60;;;;;;6210578;23;20358;-83
2023/07/21 06:29:39;;;;;;;3.15;2.90;;;18.20;95.60;;;;;;6211159;23;20071;-83
2023/07/21 06:32:05;;;;;;;4.65;2.33;;;18.20;95.50;;;;;;6211082;23;19997;-84
2023/07/21 06:34:30;;;;;;;3.33;2.88;;;18.30;95.40;;;;;;6211237;23;20123;-84
2023/07/21 06:36:56;;;;;;;3.35;2.95;;;18.30;95.40;;;;;;6211173;23;20031;-84
2023/07/21 06:39:22;;;;;;;2.80;2.60;;;18.40;95.40;;;;;;6184245;23;20015;-84
2023/07/21 06:41:48;;;;;;;3.65;2.83;;;18.50;95.30;;;;;;6211453;23;20011;-85
2023/07/21 06:44:14;;;;;;;3.67;2.67;;;18.50;95.00;;;;;;6212657;23;20008;-86
2023/07/21 06:46:42;;;;;;;4.32;2.78;;;18.60;94.80;;;;;;6213148;23;20478;-85
2023/07/21 06:49:07;;;;;;;2.63;2.42;;;18.60;94.60;;;;;;6212794;23;20330;-85
2023/07/21 06:51:33;;;;;;;3.72;2.50;;;18.70;94.40;;;;;;6212899;23;20041;-82
2023/07/21 06:53:59;;;;;;;2.42;2.05;;;18.70;94.20;;;;;;6212310;23;20462;-82
2023/07/21 06:56:24;;;;;;;4.25;1.70;;;18.70;94.20;;;;;;6185382;23;20091;-82
2023/07/21 06:58:50;;;;;;;5.45;2.50;;;18.80;93.90;;;;;;6212538;23;20001;-83
2023/07/21 07:01:16;;;;;;;2.95;2.00;;;19.00;93.80;;;;;;6212790;23;20383;-83
2023/07/21 07:03:41;;;;;;;4.95;2.10;;;19.10;93.70;;;;;;6212546;23;20012;-83
2023/07/21 07:06:07;;;;;;;2.30;2.10;;;19.20;93.50;;;;;;6212494;23;20270;-84
2023/07/21 07:08:32;;;;;;;2.20;2.00;;;19.30;93.20;;;;;;6212612;23;20028;-83
2023/07/21 07:10:58;;;;;;;2.03;1.85;;;19.40;93.00;;;;;;6212179;23;20003;-84
2023/07/21 07:13:24;;;;;;;4.75;2.38;;;19.60;92.60;;;;;;6212206;23;20323;-83
2023/07/21 07:15:50;;;;;;;2.28;1.70;;;19.70;92.40;;;;;;6185483;23;20082;-84
2023/07/21 07:18:16;;;;;;;3.35;1.85;;;19.80;92.40;;;;;;6212344;23;20395;-83
2023/07/21 07:20:52;;;;;;;3.42;1.85;;;19.80;92.20;;;;;;6212134;23;20054;-84
2023/07/21 07:23:19;;;;;;;1.92;1.33;;;19.90;91.70;;;;;;6211994;23;20000;-83
2023/07/21 07:25:49;;;;;;;2.05;1.30;;;20.00;91.70;;;;;;6211583;23;20001;-83
2023/07/21 07:28:16;;;;;;;3.60;1.60;;;20.20;91.50;;;;;;6212165;23;20000;-83
2023/07/21 07:30:42;;;;;;;2.03;1.40;;;20.30;91.40;;;;;;6212322;23;20094;-83
2023/07/21 07:33:08;;;;;;;2.50;1.27;;;20.40;91.10;;;;;;6212098;23;20668;-84
2023/07/21 07:35:33;;;;;;;3.38;1.30;;;20.50;90.60;;;;;;6212158;23;20013;-82
2023/07/21 07:37:59;;;;;;;2.45;1.05;;;20.70;90.10;;;;;;6212129;23;20358;-83
2023/07/21 07:40:25;;;;;;;2.83;1.60;;;20.80;89.60;;;;;;6211903;23;20510;-87
2023/07/21 07:42:51;;;;;;;2.40;1.75;;;20.90;89.60;;;;;;6212368;23;20367;-84
2023/07/21 07:45:16;;;;;;;2.58;1.48;;;21.00;89.30;;;;;;6213584;23;20480;-83
2023/07/21 07:47:45;;;;;;;2.40;1.42;;;21.10;89.00;;;;;;6213227;23;20484;-87
2023/07/21 07:50:11;;;;;;;4.10;1.75;;;21.30;88.70;;;;;;6212705;23;20016;-82
2023/07/21 07:52:39;;;;;;;1.55;0.68;;;21.40;88.70;;;;;;6212023;23;20024;-83
2023/07/21 07:55:06;;;;;;;2.28;0.93;;;21.50;88.10;;;;;;6211520;23;20466;-83
2023/07/21 07:57:31;;;;;;;1.02;0.80;;;21.60;87.20;;;;;;6212047;23;20000;-83
2023/07/21 07:59:57;;;;;;;1.58;0.90;;;21.70;86.40;;;;;;6211915;23;20085;-84
2023/07/21 08:02:22;;;;;;;2.55;1.10;;;21.70;85.80;;;;;;6211313;23;20142;-83
2023/07/21 08:04:48;;;;;;;1.35;1.10;;;21.70;85.80;;;;;;6211784;23;20012;-83
2023/07/21 08:07:14;;;;;;;3.03;1.70;;;21.70;85.90;;;;;;6211689;23;20079;-82
2023/07/21 08:09:39;;;;;;;3.30;2.25;;;21.70;86.20;;;;;;6211257;23;20111;-83
2023/07/21 08:12:05;;;;;;;3.00;1.77;;;21.80;86.40;;;;;;6211621;23;20678;-83
2023/07/21 08:14:31;;;;;;;2.08;1.75;;;21.90;86.10;;;;;;6211898;23;20088;-83
2023/07/21 08:17:00;;;;;;;2.78;1.73;;;22.00;85.70;;;;;;6211821;23;20394;-83
2023/07/21 08:19:26;;;;;;;2.55;1.48;;;22.00;85.10;;;;;;6211581;23;20426;-83
2023/07/21 08:21:52;;;;;;;4.93;1.70;;;22.10;85.40;;;;;;6211824;23;20007;-83
2023/07/21 08:24:17;;;;;;;1.98;1.40;;;22.10;85.50;;;;;;6210925;23;20000;-82
2023/07/21 08:26:43;;;;;;;1.65;1.40;;;22.10;85.10;;;;;;6211819;23;20009;-85
2023/07/21 08:29:09;;;;;;;3.22;2.00;;;22.10;84.70;;;;;;6211684;23;20001;-83
2023/07/21 08:31:35;;;;;;;2.88;1.95;;;22.10;84.80;;;;;;6211488;23;20001;-83
2023/07/21 08:34:01;;;;;;;3.33;2.53;;;22.20;84.70;;;;;;6211705;23;20079;-82
2023/07/21 08:36:26;;;;;;;2.50;2.30;;;22.30;84.50;;;;;;6211599;23;20058;-82
2023/07/21 08:38:52;;;;;;;2.33;2.13;;;22.40;84.30;;;;;;6211031;23;20115;-83
2023/07/21 08:41:20;;;;;;;2.58;2.38;;;22.40;84.40;;;;;;6184955;23;20008;-83
2023/07/21 08:43:47;;;;;;;3.38;2.55;;;22.50;83.60;;;;;;6211384;23;20000;-83
2023/07/21 08:46:12;;;;;;;5.47;2.72;;;22.50;83.00;;;;;;6211413;23;20054;-83
2023/07/21 08:48:40;;;;;;;4.47;2.92;;;22.50;83.10;;;;;;6211576;23;20434;-83
2023/07/21 08:51:06;;;;;;;4.15;2.45;;;22.60;83.00;;;;;;6211420;23;20371;-84
2023/07/21 08:53:32;;;;;;;3.15;2.70;;;22.60;82.90;;;;;;6210752;23;20009;-83
2023/07/21 08:55:59;;;;;;;3.78;2.53;;;22.70;82.80;;;;;;6211514;23;20019;-84
2023/07/21 08:58:26;;;;;;;2.47;2.28;;;22.80;82.70;;;;;;6211107;23;20001;-82
2023/07/21 09:00:53;;;;;;;3.03;2.08;;;22.80;82.20;;;;;;6211339;23;20074;-82
2023/07/21 09:03:29;;;;;;;2.63;2.10;;;22.70;80.80;;;;;;6211335;23;20480;-84
2023/07/21 09:05:57;;;;;;;2.78;2.13;;;22.60;81.20;;;;;;6211003;23;20083;-82
2023/07/21 09:08:28;;;;;;;2.58;1.73;;;22.60;80.90;;;;;;6184929;23;20418;-83
2023/07/21 09:11:01;;;;;;;4.97;1.95;;;22.70;80.90;;;;;;6211052;23;20075;-82
2023/07/21 09:13:28;;;;;;;3.80;2.17;;;22.70;80.40;;;;;;6184599;23;20004;-83
2023/07/21 09:15:56;;;;;;;3.60;1.98;;;22.70;80.80;;;;;;6184987;23;20011;-83
2023/07/21 09:18:30;;;;;;;2.83;2.35;;;22.60;79.80;;;;;;6211254;23;20001;-82
2023/07/21 09:20:56;;;;;;;2.58;1.90;;;22.50;80.00;;;;;;6211094;23;20039;-90
2023/07/21 09:23:22;;;;;;;2.90;2.10;;;22.50;79.90;;;;;;6211046;23;20005;-82
2023/07/21 09:25:54;;;;;;;3.03;1.60;;;22.50;79.80;;;;;;6184770;23;20008;-83
2023/07/21 09:28:47;;;;;;;2.40;1.70;;;22.60;79.70;;;;;;6211208;23;20005;-83
2023/07/21 09:31:13;;;;;;;1.80;1.52;;;22.70;79.50;;;;;;6204952;23;20140;-83
2023/07/21 09:33:44;;;;;;;3.28;1.83;;;22.70;78.60;;;;;;6211228;23;20367;-82
2023/07/21 09:36:10;;;;;;;3.80;2.15;;;22.70;78.10;;;;;;6210826;23;20028;-82
2023/07/21 09:38:38;;;;;;;3.03;2.50;;;22.70;78.30;;;;;;6211280;23;20079;-81
2023/07/21 09:41:11;;;;;;;3.28;2.85;;;22.60;78.70;;;;;;6211241;23;20297;-83
2023/07/21 09:43:38;;;;;;;2.42;2.00;;;22.70;79.10;;;;;;6211211;23;20067;-81
2023/07/21 09:46:06;;;;;;;4.03;2.10;;;22.80;78.80;;;;;;6211259;23;20119;-83
2023/07/21 09:48:33;;;;;;;2.38;1.77;;;23.00;78.10;;;;;;6211477;23;20004;-82
2023/07/21 09:51:01;;;;;;;2.55;2.33;;;23.30;77.00;;;;;;6210677;23;20000;-83
2023/07/21 09:53:43;;;;;;;3.72;2.58;;;23.50;76.50;;;;;;6210860;23;20027;-83
2023/07/21 09:56:10;;;;;;;2.17;1.98;;;23.80;76.90;;;;;;6210820;23;20011;-81
2023/07/21 09:59:00;;;;;;;2.20;2.00;;;23.90;75.80;;;;;;6210801;23;20055;-80
2023/07/21 10:01:26;;;;;;;1.98;1.17;;;24.10;74.60;;;;;;6210236;23;20422;-82
2023/07/21 10:03:52;;;;;;;2.17;1.55;;;24.10;73.40;;;;;;6210334;23;20083;-81
2023/07/21 10:06:19;;;;;;;2.03;1.60;;;24.10;72.80;;;;;;6211104;23;19997;-83
2023/07/21 10:08:45;;;;;;;2.40;1.63;;;24.10;72.60;;;;;;6211102;23;20051;-81
2023/07/21 10:11:12;;;;;;;3.03;2.08;;;24.20;72.60;;;;;;6184189;23;20339;-83
2023/07/21 10:13:46;;;;;;;2.75;2.20;;;24.10;72.90;;;;;;6211276;23;20001;-84
2023/07/21 10:16:12;;;;;;;3.33;2.30;;;24.10;72.70;;;;;;6211498;23;20023;-84
2023/07/21 10:19:01;;;;;;;2.42;2.22;;;24.10;72.90;;;;;;6212646;23;20020;-82
2023/07/21 10:21:50;;;;;;;3.08;2.55;;;24.00;73.10;;;;;;6212969;23;20107;-84
2023/07/21 10:24:27;;;;;;;2.70;2.45;;;23.80;73.40;;;;;;6212769;23;20011;-83
2023/07/21 10:26:59;;;;;;;2.75;2.53;;;23.70;73.70;;;;;;6212974;23;20004;-84
2023/07/21 10:29:25;;;;;;;3.40;3.10;;;23.60;74.20;;;;;;6212489;23;20025;-83
2023/07/21 10:31:53;;;;;;;3.53;2.58;;;23.60;74.30;;;;;;6212586;23;20054;-84
2023/07/21 10:34:24;;;;;;;2.67;2.17;;;23.60;74.60;;;;;;6212316;23;20485;-85
2023/07/21 10:36:53;;;;;;;2.58;2.28;;;23.70;74.60;;;;;;6212874;23;20004;-84
2023/07/21 10:39:22;;;;;;;2.58;2.15;;;23.70;74.40;;;;;;6212462;23;20000;-84
2023/07/21 10:41:49;;;;;;;3.13;2.90;;;23.70;74.50;;;;;;6213176;23;20007;-83
2023/07/21 10:44:14;;;;;;;3.63;2.00;;;23.70;74.60;;;;;;6212614;23;20330;-83
2023/07/21 10:46:45;;;;;;;4.32;1.70;;;23.70;74.90;;;;;;6212904;23;19996;-83
2023/07/21 10:49:15;;;;;;;3.35;2.10;;;23.70;75.20;;;;;;6212185;23;20004;-83
2023/07/21 10:51:48;;;;;;;2.25;1.60;;;23.70;74.30;;;;;;6212659;23;20023;-83
2023/07/21 10:54:16;;;;;;;3.33;2.28;;;23.70;73.60;;;;;;6212230;23;20442;-82
2023/07/21 10:56:44;;;;;;;2.50;2.00;;;23.70;73.30;;;;;;6213011;23;20051;-83
2023/07/21 10:59:10;;;;;;;1.92;1.30;;;23.60;73.60;;;;;;6212461;23;20119;-82
2023/07/21 11:01:47;;;;;;;2.60;2.13;;;23.70;74.10;;;;;;6212072;23;20004;-82
2023/07/21 11:04:17;;;;;;;2.90;1.90;;;23.70;73.70;;;;;;6211589;23;20098;-83
2023/07/21 11:06:44;;;;;;;1.63;1.20;;;23.70;74.20;;;;;;6212428;23;20330;-82
2023/07/21 11:09:14;;;;;;;3.05;1.60;;;23.80;73.70;;;;;;6211999;23;20377;-82
2023/07/21 11:11:39;;;;;;;2.60;1.58;;;23.80;73.30;;;;;;6212811;23;20005;-83
2023/07/21 11:14:10;;;;;;;2.63;0.90;;;23.80;72.20;;;;;;6212508;23;20423;-82
2023/07/21 11:16:40;;;;;;;1.45;0.98;;;23.80;70.90;;;;;;6211941;23;20012;-82
2023/07/21 11:19:07;;;;;;;1.55;0.85;;;23.70;70.00;;;;;;6211583;23;20069;-82
2023/07/21 11:21:34;;;;;;;1.67;0.82;;;23.70;69.80;;;;;;6211750;23;20004;-82
2023/07/21 11:24:00;;;;;;;2.00;0.80;;;23.80;69.20;;;;;;6211145;23;20013;-83
2023/07/21 11:26:26;;;;;;;1.27;0.68;;;23.90;69.00;;;;;;6212200;23;20009;-82
2023/07/21 11:28:52;;;;;;;2.63;0.50;;;24.00;68.60;;;;;;6211433;23;20004;-82
2023/07/21 11:31:18;;;;;;;1.98;0.70;;;24.10;67.60;;;;;;6210062;23;19996;-82
2023/07/21 11:33:48;;;;;;;0.80;0.43;;;24.20;67.00;;;;;;6211728;23;20012;-83
2023/07/21 11:36:19;;;;;;;2.25;1.60;;;24.30;66.90;;;;;;6211849;23;20005;-83
2023/07/21 11:39:03;;;;;;;2.05;1.40;;;24.50;67.10;;;;;;6212173;23;20001;-82
2023/07/21 11:41:40;;;;;;;1.35;1.13;;;24.70;67.90;;;;;;6212275;23;20031;-82
2023/07/21 11:44:30;;;;;;;2.13;1.42;;;24.90;67.60;;;;;;6211986;23;20019;-82
2023/07/21 11:47:04;;;;;;;2.25;1.80;;;25.10;66.90;;;;;;6192673;23;20377;-83
2023/07/21 11:49:30;;;;;;;2.90;1.60;;;25.10;66.80;;;;;;6211239;23;20016;-83
2023/07/21 11:52:00;;;;;;;2.20;1.58;;;25.10;66.90;;;;;;6211659;23;20004;-81
2023/07/21 11:54:28;;;;;;;3.03;1.67;;;25.10;66.80;;;;;;6212144;23;20004;-83
2023/07/21 11:56:56;;;;;;;1.75;1.65;;;25.10;66.60;;;;;;6211949;23;20004;-84
2023/07/21 11:59:23;;;;;;;3.45;1.80;;;25.00;66.80;;;;;;6212364;23;20619;-84
2023/07/21 12:01:49;;;;;;;2.15;1.75;;;24.90;67.10;;;;;;6211493;23;20012;-85
2023/07/21 12:04:16;;;;;;;3.05;1.50;;;24.80;67.10;;;;;;6211907;23;20004;-85
2023/07/21 12:06:41;;;;;;;3.08;1.50;;;24.70;67.40;;;;;;6211945;23;20023;-85
2023/07/21 12:09:07;;;;;;;1.63;1.33;;;24.70;67.30;;;;;;6212142;23;20080;-84
2023/07/21 12:11:37;;;;;;;2.22;1.40;;;24.60;67.20;;;;;;6211764;23;20012;-83
2023/07/21 12:14:03;;;;;;;2.45;1.20;;;24.50;66.90;;;;;;6211261;23;19997;-84
2023/07/21 12:16:29;;;;;;;1.52;1.42;;;24.60;66.90;;;;;;6211302;23;20001;-85
2023/07/21 12:18:57;;;;;;;2.13;1.50;;;24.60;66.80;;;;;;6211519;23;20008;-84
2023/07/21 12:21:24;;;;;;;1.73;1.10;;;24.80;66.90;;;;;;6211556;23;20000;-84
2023/07/21 12:23:49;;;;;;;1.42;1.27;;;24.80;66.20;;;;;;6211568;23;20391;-85
2023/07/21 12:26:15;;;;;;;1.73;1.23;;;24.90;66.10;;;;;;6211843;23;20012;-84
2023/07/21 12:28:41;;;;;;;1.73;1.17;;;24.90;66.10;;;;;;6212003;23;20035;-85
2023/07/21 12:31:07;;;;;;;1.95;1.20;;;24.90;66.60;;;;;;6211078;23;20001;-86
2023/07/21 12:33:35;;;;;;;2.75;1.17;;;25.00;66.90;;;;;;6211890;23;20330;-86
2023/07/21 12:36:01;;;;;;;2.38;1.50;;;24.90;66.60;;;;;;6211426;23;20005;-85
2023/07/21 12:38:26;;;;;;;4.60;2.53;;;24.80;66.70;;;;;;6211759;23;20106;-86
2023/07/21 12:40:52;;;;;;;3.33;2.75;;;24.70;68.30;;;;;;6211348;23;20426;-86
2023/07/21 12:43:18;;;;;;;6.03;2.30;;;24.60;69.60;;;;;;6211696;23;20071;-84
2023/07/21 12:45:44;;;;;;;3.90;3.25;;;24.50;70.90;;;;;;6211063;23;20012;-82
2023/07/21 12:48:10;;;;;;;4.45;2.85;;;24.40;71.60;;;;;;6211994;23;20442;-84